sensor_id;sensor_type;location;lat;lon;timestamp;P1;durP1;ratioP1;P2;durP2;ratioP2
56720;SDS011;53183;47.412;18.884;2024-01-10T00:02:25;27.65;;;9.63;;
56720;SDS011;53183;47.412;18.884;2024-01-10T00:04:53;25.98;;;10.70;;
56720;SDS011;53183;47.412;18.884;2024-01-10T00:07:21;23.58;;;10.25;;
56720;SDS011;53183;47.412;18.884;2024-01-10T00:09:48;20.15;;;8.07;;
56720;SDS011;53183;47.412;18.884;2024-01-10T00:12:19;21.48;;;9.48;;
56720;SDS011;53183;47.412;18.884;2024-01-10T00:14:47;31.33;;;9.98;;
56720;SDS011;53183;47.412;18.884;2024-01-10T00:17:15;22.40;;;9.95;;
56720;SDS011;53183;47.412;18.884;2024-01-10T00:19:42;20.62;;;9.73;;
56720;SDS011;53183;47.412;18.884;2024-01-10T00:22:09;28.10;;;10.15;;
56720;SDS011;53183;47.412;18.884;2024-01-10T00:24:37;22.10;;;9.60;;
56720;SDS011;53183;47.412;18.884;2024-01-10T00:27:05;26.48;;;9.32;;
56720;SDS011;53183;47.412;18.884;2024-01-10T00:29:32;21.37;;;8.75;;
56720;SDS011;53183;47.412;18.884;2024-01-10T00:32:01;30.23;;;8.85;;
56720;SDS011;53183;47.412;18.884;2024-01-10T00:34:29;24.65;;;8.55;;
56720;SDS011;53183;47.412;18.884;2024-01-10T00:36:58;21.48;;;8.88;;
56720;SDS011;53183;47.412;18.884;2024-01-10T00:39:25;15.90;;;7.60;;
56720;SDS011;53183;47.412;18.884;2024-01-10T00:41:53;30.27;;;9.13;;
56720;SDS011;53183;47.412;18.884;2024-01-10T00:44:21;25.85;;;9.05;;
56720;SDS011;53183;47.412;18.884;2024-01-10T00:46:48;24.27;;;8.52;;
56720;SDS011;53183;47.412;18.884;2024-01-10T00:49:16;24.65;;;9.40;;
56720;SDS011;53183;47.412;18.884;2024-01-10T00:51:43;20.62;;;8.88;;
56720;SDS011;53183;47.412;18.884;2024-01-10T00:54:10;19.10;;;8.98;;
56720;SDS011;53183;47.412;18.884;2024-01-10T00:56:37;17.35;;;9.30;;
56720;SDS011;53183;47.412;18.884;2024-01-10T00:59:05;19.87;;;9.68;;
56720;SDS011;53183;47.412;18.884;2024-01-10T01:01:32;23.20;;;9.05;;
56720;SDS011;53183;47.412;18.884;2024-01-10T01:03:59;21.40;;;8.60;;
56720;SDS011;53183;47.412;18.884;2024-01-10T01:06:27;26.58;;;9.20;;
56720;SDS011;53183;47.412;18.884;2024-01-10T01:08:54;23.05;;;8.93;;
56720;SDS011;53183;47.412;18.884;2024-01-10T01:11:22;19.95;;;7.53;;
56720;SDS011;53183;47.412;18.884;2024-01-10T01:13:49;14.10;;;7.32;;
56720;SDS011;53183;47.412;18.884;2024-01-10T01:16:17;23.35;;;9.18;;
56720;SDS011;53183;47.412;18.884;2024-01-10T01:18:45;26.12;;;8.85;;
56720;SDS011;53183;47.412;18.884;2024-01-10T01:21:12;19.08;;;7.53;;
56720;SDS011;53183;47.412;18.884;2024-01-10T01:23:40;14.55;;;7.93;;
56720;SDS011;53183;47.412;18.884;2024-01-10T01:26:09;16.58;;;6.97;;
56720;SDS011;53183;47.412;18.884;2024-01-10T01:28:38;14.98;;;7.15;;
56720;SDS011;53183;47.412;18.884;2024-01-10T01:31:06;18.65;;;8.20;;
56720;SDS011;53183;47.412;18.884;2024-01-10T01:33:34;13.07;;;7.90;;
56720;SDS011;53183;47.412;18.884;2024-01-10T01:36:01;18.35;;;7.60;;
56720;SDS011;53183;47.412;18.884;2024-01-10T01:38:30;17.73;;;7.15;;
56720;SDS011;53183;47.412;18.884;2024-01-10T01:40:58;18.70;;;6.05;;
56720;SDS011;53183;47.412;18.884;2024-01-10T01:43:26;20.73;;;8.52;;
56720;SDS011;53183;47.412;18.884;2024-01-10T01:46:06;17.70;;;6.60;;
56720;SDS011;53183;47.412;18.884;2024-01-10T01:48:34;19.42;;;5.87;;
56720;SDS011;53183;47.412;18.884;2024-01-10T01:51:04;13.02;;;5.65;;
56720;SDS011;53183;47.412;18.884;2024-01-10T01:53:34;15.48;;;6.22;;
56720;SDS011;53183;47.412;18.884;2024-01-10T01:56:04;29.90;;;8.02;;
56720;SDS011;53183;47.412;18.884;2024-01-10T01:58:34;15.48;;;6.15;;
56720;SDS011;53183;47.412;18.884;2024-01-10T02:01:03;13.85;;;6.32;;
56720;SDS011;53183;47.412;18.884;2024-01-10T02:03:32;16.70;;;6.65;;
56720;SDS011;53183;47.412;18.884;2024-01-10T02:06:00;11.68;;;5.90;;
56720;SDS011;53183;47.412;18.884;2024-01-10T02:08:34;12.13;;;5.78;;
56720;SDS011;53183;47.412;18.884;2024-01-10T02:11:03;15.32;;;6.45;;
56720;SDS011;53183;47.412;18.884;2024-01-10T02:13:31;11.48;;;4.60;;
56720;SDS011;53183;47.412;18.884;2024-01-10T02:15:59;10.73;;;4.80;;
56720;SDS011;53183;47.412;18.884;2024-01-10T02:18:27;10.48;;;4.53;;
56720;SDS011;53183;47.412;18.884;2024-01-10T02:20:55;14.38;;;4.25;;
56720;SDS011;53183;47.412;18.884;2024-01-10T02:23:22;16.20;;;5.32;;
56720;SDS011;53183;47.412;18.884;2024-01-10T02:25:51;11.70;;;3.83;;
56720;SDS011;53183;47.412;18.884;2024-01-10T02:28:19;5.95;;;3.55;;
56720;SDS011;53183;47.412;18.884;2024-01-10T02:30:46;11.77;;;3.83;;
56720;SDS011;53183;47.412;18.884;2024-01-10T02:33:15;12.80;;;3.62;;
56720;SDS011;53183;47.412;18.884;2024-01-10T02:35:42;6.87;;;3.08;;
56720;SDS011;53183;47.412;18.884;2024-01-10T02:38:10;7.55;;;5.03;;
56720;SDS011;53183;47.412;18.884;2024-01-10T02:40:37;12.18;;;4.37;;
56720;SDS011;53183;47.412;18.884;2024-01-10T02:43:04;13.77;;;5.85;;
56720;SDS011;53183;47.412;18.884;2024-01-10T02:45:33;12.30;;;4.85;;
56720;SDS011;53183;47.412;18.884;2024-01-10T02:48:03;8.57;;;4.60;;
56720;SDS011;53183;47.412;18.884;2024-01-10T02:50:30;9.32;;;4.25;;
56720;SDS011;53183;47.412;18.884;2024-01-10T02:52:58;8.40;;;4.00;;
56720;SDS011;53183;47.412;18.884;2024-01-10T02:55:25;9.10;;;4.43;;
56720;SDS011;53183;47.412;18.884;2024-01-10T02:57:52;7.07;;;4.50;;
56720;SDS011;53183;47.412;18.884;2024-01-10T03:00:20;8.25;;;3.47;;
56720;SDS011;53183;47.412;18.884;2024-01-10T03:02:47;10.15;;;4.35;;
56720;SDS011;53183;47.412;18.884;2024-01-10T03:05:14;9.85;;;3.87;;
56720;SDS011;53183;47.412;18.884;2024-01-10T03:07:42;8.48;;;3.90;;
56720;SDS011;53183;47.412;18.884;2024-01-10T03:10:09;7.78;;;4.30;;
56720;SDS011;53183;47.412;18.884;2024-01-10T03:12:37;12.75;;;4.00;;
56720;SDS011;53183;47.412;18.884;2024-01-10T03:15:05;8.55;;;4.20;;
56720;SDS011;53183;47.412;18.884;2024-01-10T03:17:33;5.32;;;3.45;;
56720;SDS011;53183;47.412;18.884;2024-01-10T03:20:01;13.35;;;4.20;;
56720;SDS011;53183;47.412;18.884;2024-01-10T03:22:45;8.35;;;4.10;;
56720;SDS011;53183;47.412;18.884;2024-01-10T03:25:13;11.30;;;3.62;;
56720;SDS011;53183;47.412;18.884;2024-01-10T03:27:40;13.40;;;4.95;;
56720;SDS011;53183;47.412;18.884;2024-01-10T03:30:07;12.37;;;4.70;;
56720;SDS011;53183;47.412;18.884;2024-01-10T03:32:35;9.55;;;3.42;;
56720;SDS011;53183;47.412;18.884;2024-01-10T03:35:03;17.05;;;6.72;;
56720;SDS011;53183;47.412;18.884;2024-01-10T03:37:32;16.90;;;8.30;;
56720;SDS011;53183;47.412;18.884;2024-01-10T03:39:59;16.33;;;6.25;;
56720;SDS011;53183;47.412;18.884;2024-01-10T03:42:28;13.73;;;6.53;;
56720;SDS011;53183;47.412;18.884;2024-01-10T03:44:55;16.87;;;6.97;;
56720;SDS011;53183;47.412;18.884;2024-01-10T03:47:22;11.30;;;5.53;;
56720;SDS011;53183;47.412;18.884;2024-01-10T03:49:49;12.13;;;4.80;;
56720;SDS011;53183;47.412;18.884;2024-01-10T03:52:17;10.60;;;4.22;;
56720;SDS011;53183;47.412;18.884;2024-01-10T03:54:46;12.30;;;4.28;;
56720;SDS011;53183;47.412;18.884;2024-01-10T03:57:16;8.90;;;3.60;;
56720;SDS011;53183;47.412;18.884;2024-01-10T03:59:44;15.88;;;4.43;;
56720;SDS011;53183;47.412;18.884;2024-01-10T04:02:12;9.57;;;3.33;;
56720;SDS011;53183;47.412;18.884;2024-01-10T04:04:39;8.32;;;3.78;;
56720;SDS011;53183;47.412;18.884;2024-01-10T04:07:07;6.32;;;2.97;;
56720;SDS011;53183;47.412;18.884;2024-01-10T04:09:34;12.00;;;3.20;;
56720;SDS011;53183;47.412;18.884;2024-01-10T04:12:02;8.27;;;4.50;;
56720;SDS011;53183;47.412;18.884;2024-01-10T04:14:30;10.00;;;3.67;;
56720;SDS011;53183;47.412;18.884;2024-01-10T04:16:57;5.18;;;3.65;;
56720;SDS011;53183;47.412;18.884;2024-01-10T04:19:24;4.72;;;2.75;;
56720;SDS011;53183;47.412;18.884;2024-01-10T04:21:51;10.15;;;4.62;;
56720;SDS011;53183;47.412;18.884;2024-01-10T04:24:18;9.75;;;5.10;;
56720;SDS011;53183;47.412;18.884;2024-01-10T04:26:46;9.23;;;4.37;;
56720;SDS011;53183;47.412;18.884;2024-01-10T04:29:13;7.03;;;3.62;;
56720;SDS011;53183;47.412;18.884;2024-01-10T04:31:40;15.15;;;4.75;;
56720;SDS011;53183;47.412;18.884;2024-01-10T04:34:08;12.82;;;4.05;;
56720;SDS011;53183;47.412;18.884;2024-01-10T04:36:36;10.60;;;5.12;;
56720;SDS011;53183;47.412;18.884;2024-01-10T04:39:03;7.93;;;4.80;;
56720;SDS011;53183;47.412;18.884;2024-01-10T04:41:30;10.70;;;3.50;;
56720;SDS011;53183;47.412;18.884;2024-01-10T04:43:58;9.20;;;4.32;;
56720;SDS011;53183;47.412;18.884;2024-01-10T04:46:25;8.93;;;4.07;;
56720;SDS011;53183;47.412;18.884;2024-01-10T04:48:54;11.90;;;4.18;;
56720;SDS011;53183;47.412;18.884;2024-01-10T04:51:22;11.43;;;4.70;;
56720;SDS011;53183;47.412;18.884;2024-01-10T04:53:49;10.75;;;4.05;;
56720;SDS011;53183;47.412;18.884;2024-01-10T04:56:17;14.65;;;7.00;;
56720;SDS011;53183;47.412;18.884;2024-01-10T04:58:44;13.48;;;6.00;;
56720;SDS011;53183;47.412;18.884;2024-01-10T05:01:13;10.68;;;6.28;;
56720;SDS011;53183;47.412;18.884;2024-01-10T05:03:41;15.52;;;8.13;;
56720;SDS011;53183;47.412;18.884;2024-01-10T05:06:08;14.10;;;6.32;;
56720;SDS011;53183;47.412;18.884;2024-01-10T05:08:36;8.63;;;5.50;;
56720;SDS011;53183;47.412;18.884;2024-01-10T05:11:03;14.25;;;5.03;;
56720;SDS011;53183;47.412;18.884;2024-01-10T05:13:30;26.77;;;7.25;;
56720;SDS011;53183;47.412;18.884;2024-01-10T05:15:58;30.48;;;6.07;;
56720;SDS011;53183;47.412;18.884;2024-01-10T05:18:25;15.02;;;6.25;;
56720;SDS011;53183;47.412;18.884;2024-01-10T05:20:53;8.35;;;3.37;;
56720;SDS011;53183;47.412;18.884;2024-01-10T05:23:21;10.15;;;4.12;;
56720;SDS011;53183;47.412;18.884;2024-01-10T05:25:49;10.98;;;4.35;;
56720;SDS011;53183;47.412;18.884;2024-01-10T05:28:17;17.10;;;6.35;;
56720;SDS011;53183;47.412;18.884;2024-01-10T05:30:44;15.80;;;5.90;;
56720;SDS011;53183;47.412;18.884;2024-01-10T05:33:12;16.73;;;5.65;;
56720;SDS011;53183;47.412;18.884;2024-01-10T05:35:41;19.35;;;6.68;;
56720;SDS011;53183;47.412;18.884;2024-01-10T05:38:09;14.70;;;5.30;;
56720;SDS011;53183;47.412;18.884;2024-01-10T05:40:36;18.10;;;6.87;;
56720;SDS011;53183;47.412;18.884;2024-01-10T05:43:03;19.90;;;7.65;;
56720;SDS011;53183;47.412;18.884;2024-01-10T05:45:31;35.53;;;10.75;;
56720;SDS011;53183;47.412;18.884;2024-01-10T05:47:59;30.58;;;11.25;;
56720;SDS011;53183;47.412;18.884;2024-01-10T05:50:30;34.90;;;11.57;;
56720;SDS011;53183;47.412;18.884;2024-01-10T05:53:00;24.10;;;9.80;;
56720;SDS011;53183;47.412;18.884;2024-01-10T05:55:29;32.55;;;8.13;;
56720;SDS011;53183;47.412;18.884;2024-01-10T05:57:56;36.88;;;10.73;;
56720;SDS011;53183;47.412;18.884;2024-01-10T06:00:32;49.08;;;12.15;;
56720;SDS011;53183;47.412;18.884;2024-01-10T06:02:59;44.50;;;16.17;;
56720;SDS011;53183;47.412;18.884;2024-01-10T06:05:26;57.78;;;16.20;;
56720;SDS011;53183;47.412;18.884;2024-01-10T06:07:54;78.28;;;19.30;;
56720;SDS011;53183;47.412;18.884;2024-01-10T06:10:21;47.62;;;16.00;;
56720;SDS011;53183;47.412;18.884;2024-01-10T06:12:48;29.77;;;11.12;;
56720;SDS011;53183;47.412;18.884;2024-01-10T06:15:15;28.92;;;9.30;;
56720;SDS011;53183;47.412;18.884;2024-01-10T06:17:42;19.58;;;8.70;;
56720;SDS011;53183;47.412;18.884;2024-01-10T06:20:10;24.30;;;8.20;;
56720;SDS011;53183;47.412;18.884;2024-01-10T06:22:37;21.10;;;8.15;;
56720;SDS011;53183;47.412;18.884;2024-01-10T06:25:04;14.27;;;7.90;;
56720;SDS011;53183;47.412;18.884;2024-01-10T06:27:32;24.02;;;10.95;;
56720;SDS011;53183;47.412;18.884;2024-01-10T06:29:59;30.50;;;9.07;;
56720;SDS011;53183;47.412;18.884;2024-01-10T06:32:26;21.62;;;7.12;;
56720;SDS011;53183;47.412;18.884;2024-01-10T06:34:53;15.38;;;5.45;;
56720;SDS011;53183;47.412;18.884;2024-01-10T06:37:21;22.92;;;6.68;;
56720;SDS011;53183;47.412;18.884;2024-01-10T06:39:48;32.03;;;6.72;;
56720;SDS011;53183;47.412;18.884;2024-01-10T06:42:16;16.87;;;7.37;;
56720;SDS011;53183;47.412;18.884;2024-01-10T06:44:43;16.58;;;7.93;;
56720;SDS011;53183;47.412;18.884;2024-01-10T06:47:10;26.02;;;8.13;;
56720;SDS011;53183;47.412;18.884;2024-01-10T06:49:37;24.52;;;7.37;;
56720;SDS011;53183;47.412;18.884;2024-01-10T06:52:05;33.92;;;9.00;;
56720;SDS011;53183;47.412;18.884;2024-01-10T06:54:38;22.33;;;6.50;;
56720;SDS011;53183;47.412;18.884;2024-01-10T06:57:05;16.42;;;8.07;;
56720;SDS011;53183;47.412;18.884;2024-01-10T06:59:32;22.23;;;7.05;;
56720;SDS011;53183;47.412;18.884;2024-01-10T07:01:59;18.58;;;9.05;;
56720;SDS011;53183;47.412;18.884;2024-01-10T07:04:28;14.87;;;6.07;;
56720;SDS011;53183;47.412;18.884;2024-01-10T07:06:56;13.90;;;6.10;;
56720;SDS011;53183;47.412;18.884;2024-01-10T07:09:24;20.55;;;6.75;;
56720;SDS011;53183;47.412;18.884;2024-01-10T07:11:51;19.42;;;8.05;;
56720;SDS011;53183;47.412;18.884;2024-01-10T07:14:19;23.95;;;8.23;;
56720;SDS011;53183;47.412;18.884;2024-01-10T07:16:47;21.45;;;7.72;;
56720;SDS011;53183;47.412;18.884;2024-01-10T07:19:15;28.95;;;9.38;;
56720;SDS011;53183;47.412;18.884;2024-01-10T07:21:43;30.98;;;8.75;;
56720;SDS011;53183;47.412;18.884;2024-01-10T07:24:10;25.02;;;11.35;;
56720;SDS011;53183;47.412;18.884;2024-01-10T07:26:39;31.37;;;13.10;;
56720;SDS011;53183;47.412;18.884;2024-01-10T07:29:13;32.15;;;14.48;;
56720;SDS011;53183;47.412;18.884;2024-01-10T07:31:40;45.65;;;16.90;;
56720;SDS011;53183;47.412;18.884;2024-01-10T07:34:08;42.60;;;16.27;;
56720;SDS011;53183;47.412;18.884;2024-01-10T07:36:41;39.47;;;18.25;;
56720;SDS011;53183;47.412;18.884;2024-01-10T07:39:12;44.40;;;18.23;;
56720;SDS011;53183;47.412;18.884;2024-01-10T07:41:42;28.38;;;15.98;;
56720;SDS011;53183;47.412;18.884;2024-01-10T07:44:11;36.92;;;15.50;;
56720;SDS011;53183;47.412;18.884;2024-01-10T07:46:39;37.83;;;14.95;;
56720;SDS011;53183;47.412;18.884;2024-01-10T07:49:06;29.05;;;11.65;;
56720;SDS011;53183;47.412;18.884;2024-01-10T07:51:33;28.60;;;12.02;;
56720;SDS011;53183;47.412;18.884;2024-01-10T07:54:00;32.08;;;11.88;;
56720;SDS011;53183;47.412;18.884;2024-01-10T07:56:27;32.03;;;12.25;;
56720;SDS011;53183;47.412;18.884;2024-01-10T07:58:55;27.40;;;11.45;;
56720;SDS011;53183;47.412;18.884;2024-01-10T08:01:25;29.20;;;10.77;;
56720;SDS011;53183;47.412;18.884;2024-01-10T08:03:53;36.42;;;11.60;;
56720;SDS011;53183;47.412;18.884;2024-01-10T08:06:20;23.15;;;8.75;;
56720;SDS011;53183;47.412;18.884;2024-01-10T08:08:58;26.50;;;9.40;;
56720;SDS011;53183;47.412;18.884;2024-01-10T08:11:25;18.25;;;7.50;;
56720;SDS011;53183;47.412;18.884;2024-01-10T08:13:57;18.55;;;6.90;;
56720;SDS011;53183;47.412;18.884;2024-01-10T08:16:24;14.90;;;6.40;;
56720;SDS011;53183;47.412;18.884;2024-01-10T08:18:52;11.10;;;5.85;;
56720;SDS011;53183;47.412;18.884;2024-01-10T08:21:19;16.50;;;6.90;;
56720;SDS011;53183;47.412;18.884;2024-01-10T08:23:46;12.45;;;6.03;;
56720;SDS011;53183;47.412;18.884;2024-01-10T08:26:14;13.10;;;6.22;;
56720;SDS011;53183;47.412;18.884;2024-01-10T08:28:41;24.23;;;6.60;;
56720;SDS011;53183;47.412;18.884;2024-01-10T08:31:09;12.20;;;5.82;;
56720;SDS011;53183;47.412;18.884;2024-01-10T08:33:36;35.45;;;6.97;;
56720;SDS011;53183;47.412;18.884;2024-01-10T08:36:04;18.75;;;6.95;;
56720;SDS011;53183;47.412;18.884;2024-01-10T08:38:32;20.10;;;7.85;;
56720;SDS011;53183;47.412;18.884;2024-01-10T08:40:59;17.95;;;6.97;;
56720;SDS011;53183;47.412;18.884;2024-01-10T08:43:26;16.05;;;7.75;;
56720;SDS011;53183;47.412;18.884;2024-01-10T08:45:53;17.10;;;8.75;;
56720;SDS011;53183;47.412;18.884;2024-01-10T08:48:20;20.58;;;7.05;;
56720;SDS011;53183;47.412;18.884;2024-01-10T08:50:47;21.83;;;7.90;;
56720;SDS011;53183;47.412;18.884;2024-01-10T08:53:14;14.93;;;7.78;;
56720;SDS011;53183;47.412;18.884;2024-01-10T08:55:43;17.10;;;7.45;;
56720;SDS011;53183;47.412;18.884;2024-01-10T08:58:10;23.05;;;9.85;;
56720;SDS011;53183;47.412;18.884;2024-01-10T09:00:38;16.37;;;8.25;;
56720;SDS011;53183;47.412;18.884;2024-01-10T09:03:06;26.15;;;10.05;;
56720;SDS011;53183;47.412;18.884;2024-01-10T09:05:36;30.90;;;9.90;;
56720;SDS011;53183;47.412;18.884;2024-01-10T09:08:04;28.35;;;8.80;;
56720;SDS011;53183;47.412;18.884;2024-01-10T09:10:31;26.85;;;9.20;;
56720;SDS011;53183;47.412;18.884;2024-01-10T09:12:59;21.37;;;8.20;;
56720;SDS011;53183;47.412;18.884;2024-01-10T09:15:26;21.25;;;9.13;;
56720;SDS011;53183;47.412;18.884;2024-01-10T09:17:53;23.48;;;7.97;;
56720;SDS011;53183;47.412;18.884;2024-01-10T09:20:21;28.42;;;9.13;;
56720;SDS011;53183;47.412;18.884;2024-01-10T09:22:49;26.85;;;9.25;;
56720;SDS011;53183;47.412;18.884;2024-01-10T09:25:17;19.58;;;8.88;;
56720;SDS011;53183;47.412;18.884;2024-01-10T09:27:44;17.17;;;8.60;;
56720;SDS011;53183;47.412;18.884;2024-01-10T09:30:16;35.15;;;9.95;;
56720;SDS011;53183;47.412;18.884;2024-01-10T09:32:45;21.73;;;8.98;;
56720;SDS011;53183;47.412;18.884;2024-01-10T09:35:14;19.92;;;8.88;;
56720;SDS011;53183;47.412;18.884;2024-01-10T09:37:41;30.83;;;9.05;;
56720;SDS011;53183;47.412;18.884;2024-01-10T09:40:09;20.15;;;9.43;;
56720;SDS011;53183;47.412;18.884;2024-01-10T09:42:38;23.10;;;9.43;;
56720;SDS011;53183;47.412;18.884;2024-01-10T09:45:06;15.20;;;8.60;;
56720;SDS011;53183;47.412;18.884;2024-01-10T09:47:36;22.00;;;10.15;;
56720;SDS011;53183;47.412;18.884;2024-01-10T09:50:06;24.05;;;8.65;;
56720;SDS011;53183;47.412;18.884;2024-01-10T09:52:37;20.23;;;9.13;;
56720;SDS011;53183;47.412;18.884;2024-01-10T09:55:09;18.50;;;8.52;;
56720;SDS011;53183;47.412;18.884;2024-01-10T09:57:41;16.95;;;7.50;;
56720;SDS011;53183;47.412;18.884;2024-01-10T10:00:09;25.37;;;9.70;;
56720;SDS011;53183;47.412;18.884;2024-01-10T10:02:39;20.60;;;9.25;;
56720;SDS011;53183;47.412;18.884;2024-01-10T10:05:15;21.52;;;9.45;;
56720;SDS011;53183;47.412;18.884;2024-01-10T10:10:15;22.17;;;8.70;;
56720;SDS011;53183;47.412;18.884;2024-01-10T10:12:48;24.70;;;8.95;;
56720;SDS011;53183;47.412;18.884;2024-01-10T10:15:18;23.92;;;8.20;;
56720;SDS011;53183;47.412;18.884;2024-01-10T10:18:05;23.58;;;8.98;;
56720;SDS011;53183;47.412;18.884;2024-01-10T10:20:32;19.77;;;9.30;;
56720;SDS011;53183;47.412;18.884;2024-01-10T10:23:07;22.17;;;9.90;;
56720;SDS011;53183;47.412;18.884;2024-01-10T10:25:44;25.27;;;10.05;;
56720;SDS011;53183;47.412;18.884;2024-01-10T10:28:12;22.50;;;11.00;;
56720;SDS011;53183;47.412;18.884;2024-01-10T10:30:55;17.73;;;8.10;;
56720;SDS011;53183;47.412;18.884;2024-01-10T10:33:23;21.40;;;9.27;;
56720;SDS011;53183;47.412;18.884;2024-01-10T10:35:51;21.70;;;9.27;;
56720;SDS011;53183;47.412;18.884;2024-01-10T10:38:21;29.05;;;13.25;;
56720;SDS011;53183;47.412;18.884;2024-01-10T10:40:50;27.75;;;11.90;;
56720;SDS011;53183;47.412;18.884;2024-01-10T10:43:18;22.70;;;10.80;;
56720;SDS011;53183;47.412;18.884;2024-01-10T10:45:49;26.35;;;11.60;;
56720;SDS011;53183;47.412;18.884;2024-01-10T10:48:17;27.23;;;12.00;;
56720;SDS011;53183;47.412;18.884;2024-01-10T10:51:01;25.42;;;11.77;;
56720;SDS011;53183;47.412;18.884;2024-01-10T10:53:34;24.60;;;10.90;;
56720;SDS011;53183;47.412;18.884;2024-01-10T10:56:04;24.40;;;10.93;;
56720;SDS011;53183;47.412;18.884;2024-01-10T10:58:39;21.23;;;9.55;;
56720;SDS011;53183;47.412;18.884;2024-01-10T11:01:08;29.75;;;12.18;;
56720;SDS011;53183;47.412;18.884;2024-01-10T11:03:38;30.27;;;11.52;;
56720;SDS011;53183;47.412;18.884;2024-01-10T11:06:07;19.40;;;9.15;;
56720;SDS011;53183;47.412;18.884;2024-01-10T11:08:36;22.13;;;10.05;;
56720;SDS011;53183;47.412;18.884;2024-01-10T11:11:12;25.58;;;10.85;;
56720;SDS011;53183;47.412;18.884;2024-01-10T11:14:09;29.63;;;11.75;;
56720;SDS011;53183;47.412;18.884;2024-01-10T11:19:31;15.60;;;8.68;;
56720;SDS011;53183;47.412;18.884;2024-01-10T11:24:53;20.12;;;8.50;;
56720;SDS011;53183;47.412;18.884;2024-01-10T11:27:22;18.98;;;8.07;;
56720;SDS011;53183;47.412;18.884;2024-01-10T11:29:50;17.23;;;8.05;;
56720;SDS011;53183;47.412;18.884;2024-01-10T11:32:22;19.40;;;8.32;;
56720;SDS011;53183;47.412;18.884;2024-01-10T11:37:38;22.73;;;7.43;;
56720;SDS011;53183;47.412;18.884;2024-01-10T11:40:09;19.20;;;9.60;;
56720;SDS011;53183;47.412;18.884;2024-01-10T11:42:42;21.52;;;7.72;;
56720;SDS011;53183;47.412;18.884;2024-01-10T11:47:57;16.90;;;8.25;;
56720;SDS011;53183;47.412;18.884;2024-01-10T11:50:26;16.35;;;6.43;;
56720;SDS011;53183;47.412;18.884;2024-01-10T11:52:55;16.00;;;7.15;;
56720;SDS011;53183;47.412;18.884;2024-01-10T11:58:17;17.60;;;7.25;;
56720;SDS011;53183;47.412;18.884;2024-01-10T12:00:46;13.85;;;7.20;;
56720;SDS011;53183;47.412;18.884;2024-01-10T12:03:15;15.48;;;6.20;;
56720;SDS011;53183;47.412;18.884;2024-01-10T12:05:43;16.12;;;8.05;;
56720;SDS011;53183;47.412;18.884;2024-01-10T12:08:13;19.37;;;8.05;;
56720;SDS011;53183;47.412;18.884;2024-01-10T12:10:46;10.95;;;6.35;;
56720;SDS011;53183;47.412;18.884;2024-01-10T12:13:16;16.95;;;6.53;;
56720;SDS011;53183;47.412;18.884;2024-01-10T12:15:43;20.10;;;6.65;;
56720;SDS011;53183;47.412;18.884;2024-01-10T12:18:11;14.07;;;6.55;;
56720;SDS011;53183;47.412;18.884;2024-01-10T12:20:39;15.85;;;6.62;;
56720;SDS011;53183;47.412;18.884;2024-01-10T12:23:06;15.43;;;7.68;;
56720;SDS011;53183;47.412;18.884;2024-01-10T12:25:34;15.93;;;7.32;;
56720;SDS011;53183;47.412;18.884;2024-01-10T12:28:02;20.08;;;6.68;;
56720;SDS011;53183;47.412;18.884;2024-01-10T12:30:32;15.20;;;5.85;;
56720;SDS011;53183;47.412;18.884;2024-01-10T12:33:00;12.18;;;6.00;;
56720;SDS011;53183;47.412;18.884;2024-01-10T12:35:28;10.63;;;5.45;;
56720;SDS011;53183;47.412;18.884;2024-01-10T12:37:56;12.93;;;6.40;;
56720;SDS011;53183;47.412;18.884;2024-01-10T12:40:23;15.75;;;6.97;;
56720;SDS011;53183;47.412;18.884;2024-01-10T12:43:01;16.60;;;6.82;;
56720;SDS011;53183;47.412;18.884;2024-01-10T12:45:29;15.98;;;6.87;;
56720;SDS011;53183;47.412;18.884;2024-01-10T12:47:59;18.05;;;8.50;;
56720;SDS011;53183;47.412;18.884;2024-01-10T12:50:26;19.25;;;8.00;;
56720;SDS011;53183;47.412;18.884;2024-01-10T12:52:54;19.48;;;7.18;;
56720;SDS011;53183;47.412;18.884;2024-01-10T12:55:21;20.08;;;7.95;;
56720;SDS011;53183;47.412;18.884;2024-01-10T12:57:53;23.23;;;9.48;;
56720;SDS011;53183;47.412;18.884;2024-01-10T13:00:33;14.00;;;7.07;;
56720;SDS011;53183;47.412;18.884;2024-01-10T13:03:02;29.60;;;8.10;;
56720;SDS011;53183;47.412;18.884;2024-01-10T13:05:30;15.27;;;6.95;;
56720;SDS011;53183;47.412;18.884;2024-01-10T13:07:59;23.98;;;8.82;;
56720;SDS011;53183;47.412;18.884;2024-01-10T13:10:26;20.88;;;8.65;;
56720;SDS011;53183;47.412;18.884;2024-01-10T13:12:54;20.23;;;8.07;;
56720;SDS011;53183;47.412;18.884;2024-01-10T13:15:20;16.70;;;8.48;;
56720;SDS011;53183;47.412;18.884;2024-01-10T13:17:47;25.27;;;11.27;;
56720;SDS011;53183;47.412;18.884;2024-01-10T13:20:15;30.52;;;12.43;;
56720;SDS011;53183;47.412;18.884;2024-01-10T13:22:45;43.50;;;16.23;;
56720;SDS011;53183;47.412;18.884;2024-01-10T13:25:12;32.67;;;13.07;;
56720;SDS011;53183;47.412;18.884;2024-01-10T13:27:42;44.05;;;18.05;;
56720;SDS011;53183;47.412;18.884;2024-01-10T13:30:09;21.48;;;10.10;;
56720;SDS011;53183;47.412;18.884;2024-01-10T13:32:39;17.90;;;9.18;;
56720;SDS011;53183;47.412;18.884;2024-01-10T13:35:07;19.27;;;8.63;;
56720;SDS011;53183;47.412;18.884;2024-01-10T13:37:34;14.50;;;8.25;;
56720;SDS011;53183;47.412;18.884;2024-01-10T13:40:02;19.20;;;7.93;;
56720;SDS011;53183;47.412;18.884;2024-01-10T13:42:38;21.17;;;9.18;;
56720;SDS011;53183;47.412;18.884;2024-01-10T13:45:06;17.67;;;9.15;;
56720;SDS011;53183;47.412;18.884;2024-01-10T13:47:40;19.60;;;8.45;;
56720;SDS011;53183;47.412;18.884;2024-01-10T13:50:08;15.73;;;7.93;;
56720;SDS011;53183;47.412;18.884;2024-01-10T13:52:36;27.25;;;8.80;;
56720;SDS011;53183;47.412;18.884;2024-01-10T13:55:04;22.23;;;8.68;;
56720;SDS011;53183;47.412;18.884;2024-01-10T13:57:31;18.15;;;9.27;;
56720;SDS011;53183;47.412;18.884;2024-01-10T13:59:59;22.70;;;9.73;;
56720;SDS011;53183;47.412;18.884;2024-01-10T14:02:38;18.70;;;8.50;;
56720;SDS011;53183;47.412;18.884;2024-01-10T14:05:06;21.77;;;9.75;;
56720;SDS011;53183;47.412;18.884;2024-01-10T14:07:33;21.12;;;9.65;;
56720;SDS011;53183;47.412;18.884;2024-01-10T14:10:01;20.55;;;7.95;;
56720;SDS011;53183;47.412;18.884;2024-01-10T14:12:30;21.23;;;8.90;;
56720;SDS011;53183;47.412;18.884;2024-01-10T14:14:58;21.35;;;9.43;;
56720;SDS011;53183;47.412;18.884;2024-01-10T14:17:28;22.40;;;9.90;;
56720;SDS011;53183;47.412;18.884;2024-01-10T14:19:56;13.50;;;7.50;;
56720;SDS011;53183;47.412;18.884;2024-01-10T14:22:23;22.30;;;9.60;;
56720;SDS011;53183;47.412;18.884;2024-01-10T14:24:58;20.55;;;8.20;;
56720;SDS011;53183;47.412;18.884;2024-01-10T14:27:29;16.75;;;7.80;;
56720;SDS011;53183;47.412;18.884;2024-01-10T14:29:56;23.95;;;10.18;;
56720;SDS011;53183;47.412;18.884;2024-01-10T14:32:24;16.75;;;10.77;;
56720;SDS011;53183;47.412;18.884;2024-01-10T14:34:56;23.48;;;11.10;;
56720;SDS011;53183;47.412;18.884;2024-01-10T14:37:26;19.52;;;11.00;;
56720;SDS011;53183;47.412;18.884;2024-01-10T14:39:52;36.80;;;15.55;;
56720;SDS011;53183;47.412;18.884;2024-01-10T14:42:19;42.50;;;16.50;;
56720;SDS011;53183;47.412;18.884;2024-01-10T14:44:47;49.42;;;16.37;;
56720;SDS011;53183;47.412;18.884;2024-01-10T14:47:15;33.45;;;15.25;;